KCNU/CNU METAR and TAF weather

Enter ICAO airport designator
Station Type Date Time Source
KCNU METAR 2019/12/08 13:52 UTC NOAA

KCNU 081352Z AUTO 19012KT 7SM FEW016 08/06 A2986 RMK AO2 SLP113 T00830061


Station Type Date Time Source
KCNU Decoded METAR 2019/12/08 13:52 UTC NOAA

CHANUTE JOHNSON AIRPORT, KS, United States (KCNU) 37-40N 95-29W 297M
Dec 08, 2019 - 08:52 AM EST / 2019.12.08 1352 UTC
Wind: from the S (190 degrees) at 14 MPH (12 KT):0
Visibility: 7 mile(s):0
Sky conditions: mostly clear
Temperature: 46.9 F (8.3 C)
Dew Point: 43.0 F (6.1 C)
Relative Humidity: 86%
Pressure (altimeter): 29.86 in. Hg (1011 hPa)
ob: KCNU 081352Z AUTO 19012KT 7SM FEW016 08/06 A2986 RMK AO2 SLP113 T00830061
cycle: 14

Station Type Date Time Source
KCNU TAF 2019/12/08 12:36 UTC NOAA

TAF KCNU 081134Z 0812/0912 18012KT P6SM SCT015 WS020/21045KT
TEMPO 0813/0815 BKN015
FM081500 18015G22KT P6SM OVC015
FM081800 19015G22KT P6SM OVC025
FM082200 18012KT P6SM OVC035
FM090000 18005KT P6SM OVC050
FM090400 VRB04KT P6SM OVC015

Example: see airport list